createdAt,value
2019-03-11T00:01:55.417Z,99096.76
2019-03-11T00:04:23.555Z,99092.19
2019-03-11T00:06:50.821Z,99076.81
2019-03-11T00:09:17.724Z,99082.48
2019-03-11T00:11:44.941Z,99085.17
2019-03-11T00:14:12.452Z,99081.38
2019-03-11T00:16:39.347Z,99077.88
2019-03-11T00:19:06.083Z,99067.89
2019-03-11T00:21:32.833Z,99073.83
2019-03-11T00:23:59.975Z,99081.38
2019-03-11T00:26:26.855Z,99083.28
2019-03-11T00:28:54.078Z,99084.09
2019-03-11T00:31:21.638Z,99076.80
2019-03-11T00:33:48.359Z,99083.00
2019-03-11T00:36:15.224Z,99081.39
2019-03-11T00:38:42.033Z,99086.80
2019-03-11T00:41:09.738Z,99082.22
2019-03-11T00:43:36.508Z,99102.71
2019-03-11T00:46:03.262Z,99086.78
2019-03-11T00:48:30.739Z,99088.68
2019-03-11T00:50:58.703Z,99084.09
2019-03-11T00:53:26.321Z,99080.05
2019-03-11T00:55:53.414Z,99065.75
2019-03-11T00:58:21.274Z,99070.60
2019-03-11T01:00:48.500Z,99070.06
2019-03-11T01:03:16.754Z,99060.08
2019-03-11T01:05:43.568Z,99061.97
2019-03-11T01:08:10.308Z,99055.48
2019-03-11T01:10:37.057Z,99059.00
2019-03-11T01:13:04.499Z,99050.64
2019-03-11T01:15:31.349Z,99054.42
2019-03-11T01:17:58.197Z,99036.08
2019-03-11T01:20:25.130Z,99042.53
2019-03-11T01:22:52.552Z,99033.92
2019-03-11T01:25:19.667Z,99027.44
2019-03-11T01:27:47.220Z,99026.91
2019-03-11T01:30:16.013Z,99019.61
2019-03-11T01:32:43.365Z,99018.80
2019-03-11T01:35:10.751Z,99010.72
2019-03-11T01:37:37.735Z,99006.67
2019-03-11T01:40:16.754Z,99011.51
2019-03-11T01:42:43.643Z,98997.76
2019-03-11T01:45:14.857Z,99001.80
2019-03-11T01:47:42.006Z,99014.73
2019-03-11T01:50:11.991Z,99001.26
2019-03-11T01:52:39.330Z,99004.21
2019-03-11T01:55:08.949Z,98995.05
2019-03-11T01:57:36.189Z,98989.40
2019-03-11T02:00:15.990Z,98978.33
2019-03-11T02:02:46.056Z,98984.52
2019-03-11T02:05:13.417Z,98979.14
2019-03-11T02:07:40.484Z,98967.83
2019-03-11T02:10:15.811Z,98959.18
2019-03-11T02:12:42.824Z,98957.84
2019-03-11T02:15:14.990Z,98960.00
2019-03-11T02:17:44.202Z,98938.94
2019-03-11T02:20:16.728Z,98942.69
2019-03-11T02:22:44.046Z,98929.77
2019-03-11T02:25:12.470Z,98924.37
2019-03-11T02:27:40.238Z,98918.15
2019-03-11T02:30:14.477Z,98921.39
2019-03-11T02:32:41.852Z,98916.80
2019-03-11T02:35:09.361Z,98917.32
2019-03-11T02:37:36.168Z,98909.48
2019-03-11T02:40:12.983Z,98920.30
2019-03-11T02:42:40.694Z,98902.78
2019-03-11T02:45:09.429Z,98902.47
2019-03-11T02:47:36.548Z,98886.00
2019-03-11T02:50:08.861Z,98887.34
2019-03-11T02:52:36.274Z,98887.90
2019-03-11T02:55:05.498Z,98875.77
2019-03-11T02:57:32.664Z,98881.91
2019-03-11T02:59:59.625Z,98886.48
2019-03-11T03:02:35.599Z,98895.46
2019-03-11T03:05:08.245Z,98899.80
2019-03-11T03:07:35.324Z,98901.19
2019-03-11T03:10:04.077Z,98926.56
2019-03-11T03:12:30.960Z,98914.73
2019-03-11T03:14:57.705Z,98912.05
2019-03-11T03:17:24.537Z,98904.23
2019-03-11T03:19:51.395Z,98901.81
2019-03-11T03:22:18.236Z,98917.70
2019-03-11T03:24:45.154Z,98903.14
2019-03-11T03:27:12.192Z,98900.45
2019-03-11T03:29:39.163Z,98898.84
2019-03-11T03:32:09.063Z,98899.91
2019-03-11T03:34:36.106Z,98901.80
2019-03-11T03:37:03.216Z,98907.73
2019-03-11T03:39:30.302Z,98923.32
2019-03-11T03:41:57.246Z,98907.08
2019-03-11T03:44:24.318Z,98897.66
2019-03-11T03:46:51.392Z,98886.33
2019-03-11T03:49:18.206Z,98880.37
2019-03-11T03:51:45.172Z,98873.12
2019-03-11T03:54:12.048Z,98863.98
2019-03-11T03:56:38.799Z,98860.48
2019-03-11T03:59:05.652Z,98853.78
2019-03-11T04:01:32.533Z,98846.48
2019-03-11T04:03:59.317Z,98847.31
2019-03-11T04:06:26.063Z,98845.16
2019-03-11T04:08:53.283Z,98837.08
2019-03-11T04:11:20.154Z,98835.73
2019-03-11T04:13:47.166Z,98832.00
2019-03-11T04:16:14.247Z,98827.72
2019-03-11T04:18:53.607Z,98827.72
2019-03-11T04:21:20.508Z,98818.83
2019-03-11T04:23:48.626Z,98819.09
2019-03-11T04:26:15.692Z,98804.02
2019-03-11T04:28:42.986Z,98818.55
2019-03-11T04:31:10.337Z,98801.59
2019-03-11T04:33:37.439Z,98808.58
2019-03-11T04:36:04.287Z,98790.77
2019-03-11T04:38:31.259Z,98777.83
2019-03-11T04:40:58.444Z,98772.70
2019-03-11T04:43:25.260Z,98782.41
2019-03-11T04:45:52.621Z,98781.87
2019-03-11T04:48:19.568Z,98785.92
2019-03-11T04:50:46.617Z,98792.36
2019-03-11T04:53:13.517Z,98809.05
2019-03-11T04:55:40.446Z,98799.33
2019-03-11T04:58:07.735Z,98793.45
2019-03-11T05:00:35.253Z,98799.63
2019-03-11T05:03:02.581Z,98791.84
2019-03-11T05:05:29.410Z,98791.55
2019-03-11T05:07:56.385Z,98805.04
2019-03-11T05:10:23.281Z,98824.72
2019-03-11T05:12:50.201Z,98829.03
2019-03-11T05:15:17.155Z,98849.79
2019-03-11T05:17:44.440Z,98833.36
2019-03-11T05:20:15.754Z,98841.19
2019-03-11T05:22:42.929Z,98825.30
2019-03-11T05:25:12.158Z,98843.61
2019-03-11T05:27:39.621Z,98802.41
2019-03-11T05:30:18.982Z,98801.61
2019-03-11T05:32:46.250Z,98806.72
2019-03-11T05:35:13.312Z,98816.41
2019-03-11T05:37:40.536Z,98815.87
2019-03-11T05:40:13.716Z,98821.75
2019-03-11T05:42:40.306Z,98829.88
2019-03-11T05:45:15.823Z,98841.47
2019-03-11T05:47:42.778Z,98860.03
2019-03-11T05:50:12.781Z,98844.11
2019-03-11T05:52:39.752Z,98856.20
2019-03-11T05:55:10.112Z,98838.70
2019-03-11T05:57:37.116Z,98837.59
2019-03-11T06:00:21.732Z,98837.88
2019-03-11T06:02:48.485Z,98833.85
2019-03-11T06:05:15.761Z,98819.87
2019-03-11T06:07:42.771Z,98846.24
2019-03-11T06:10:13.123Z,98844.61
2019-03-11T06:12:40.014Z,98832.22
2019-03-11T06:15:10.451Z,98822.80
2019-03-11T06:17:37.700Z,98836.02
2019-03-11T06:20:16.743Z,98833.88
2019-03-11T06:22:43.847Z,98837.61
2019-03-11T06:25:10.979Z,98845.98
2019-03-11T06:27:38.122Z,98823.36
2019-03-11T06:30:08.420Z,98836.00
2019-03-11T06:32:35.345Z,98859.45
2019-03-11T06:35:06.044Z,98865.36
2019-03-11T06:37:32.892Z,98862.36
2019-03-11T06:39:59.735Z,98855.38
2019-03-11T06:42:26.481Z,98862.38
2019-03-11T06:44:53.819Z,98868.02
2019-03-11T06:47:20.933Z,98850.25
2019-03-11T06:49:47.901Z,98877.42
2019-03-11T06:52:15.023Z,98859.14
2019-03-11T06:54:41.818Z,98846.48
2019-03-11T06:57:09.269Z,98859.68
2019-03-11T06:59:36.460Z,98860.77
2019-03-11T07:02:06.496Z,98867.46
2019-03-11T07:04:33.278Z,98877.96
2019-03-11T07:07:00.108Z,98886.31
2019-03-11T07:09:27.031Z,98897.64
2019-03-11T07:11:53.973Z,98904.12
2019-03-11T07:14:20.813Z,98919.97
2019-03-11T07:16:47.615Z,98902.99
2019-03-11T07:19:14.534Z,98918.63
2019-03-11T07:21:41.306Z,98917.03
2019-03-11T07:24:08.043Z,98922.44
2019-03-11T07:26:48.290Z,98908.16
2019-03-11T07:29:15.065Z,98914.62
2019-03-11T07:31:42.339Z,98914.06
2019-03-11T07:34:09.884Z,98911.36
2019-03-11T07:36:37.524Z,98909.20
2019-03-11T07:39:04.798Z,98910.58
2019-03-11T07:41:31.594Z,98915.16
2019-03-11T07:43:58.362Z,98947.72
2019-03-11T07:46:25.155Z,98978.08
2019-03-11T07:48:52.280Z,98974.08
2019-03-11T07:51:19.287Z,98985.66
2019-03-11T07:53:46.022Z,98993.72
2019-03-11T07:56:13.016Z,98988.50
2019-03-11T07:58:39.790Z,98987.35
2019-03-11T08:01:09.596Z,98999.58
2019-03-11T08:03:36.535Z,98982.53
2019-03-11T08:06:03.757Z,98974.89
2019-03-11T08:08:30.945Z,98979.99
2019-03-11T08:10:57.773Z,98976.65
2019-03-11T08:13:24.549Z,98973.91
2019-03-11T08:15:51.351Z,98962.19
2019-03-11T08:18:18.205Z,98960.63
2019-03-11T08:20:44.994Z,98964.23
2019-03-11T08:23:11.761Z,98967.02
2019-03-11T08:25:38.675Z,98970.21
2019-03-11T08:28:05.684Z,98980.56
2019-03-11T08:30:32.601Z,98970.10
2019-03-11T08:32:59.369Z,98971.53
2019-03-11T08:35:26.553Z,98976.64
2019-03-11T08:37:53.847Z,98976.93
2019-03-11T08:40:21.064Z,98967.39
2019-03-11T08:42:48.445Z,98978.75
2019-03-11T08:45:17.512Z,98971.45
2019-03-11T08:47:44.405Z,98974.92
2019-03-11T08:50:13.585Z,98971.41
2019-03-11T08:52:40.430Z,98973.80
2019-03-11T08:55:08.241Z,98973.87
2019-03-11T08:57:36.323Z,98987.37
2019-03-11T09:00:09.153Z,98984.43
2019-03-11T09:02:36.018Z,98993.36
2019-03-11T09:05:10.630Z,98999.71
2019-03-11T09:07:38.729Z,98991.34
2019-03-11T09:10:16.264Z,98987.39
2019-03-11T09:12:43.527Z,98985.03
2019-03-11T09:15:15.477Z,98979.37
2019-03-11T09:17:42.371Z,98986.34
2019-03-11T09:20:12.333Z,98993.63
2019-03-11T09:22:39.335Z,98994.16
2019-03-11T09:25:19.740Z,98997.69
2019-03-11T09:27:46.992Z,98990.44
2019-03-11T09:30:20.590Z,98996.64
2019-03-11T09:32:47.438Z,98998.00
2019-03-11T09:35:14.615Z,99001.77
2019-03-11T09:37:41.676Z,98995.32
2019-03-11T09:40:12.328Z,98994.27
2019-03-11T09:42:39.347Z,99004.78
2019-03-11T09:45:11.103Z,99012.89
2019-03-11T09:47:40.984Z,99020.98
2019-03-11T09:50:10.987Z,99016.39
2019-03-11T09:52:39.688Z,99016.39
2019-03-11T09:55:18.368Z,99026.59
2019-03-11T09:57:45.457Z,99024.70
2019-03-11T10:00:18.305Z,99034.71
2019-03-11T10:02:52.454Z,99026.59
2019-03-11T10:05:14.412Z,99032.73
2019-03-11T10:07:41.663Z,99043.25
2019-03-11T10:10:17.911Z,99043.25
2019-03-11T10:12:45.090Z,99044.60
2019-03-11T10:15:17.687Z,99044.05
2019-03-11T10:18:01.095Z,99050.45
2019-03-11T10:20:29.042Z,99045.06
2019-03-11T10:22:55.859Z,99049.64
2019-03-11T10:25:22.834Z,99057.20
2019-03-11T10:27:51.594Z,99061.78
2019-03-11T10:30:21.804Z,99066.62
2019-03-11T10:32:51.927Z,99062.99
2019-03-11T10:35:31.561Z,99068.42
2019-03-11T10:37:48.968Z,99058.56
2019-03-11T10:40:32.090Z,99063.14
2019-03-11T10:42:59.061Z,99056.97
2019-03-11T10:45:31.566Z,99067.80
2019-03-11T10:48:03.508Z,99055.20
2019-03-11T10:50:30.384Z,99061.86
2019-03-11T10:52:57.390Z,99069.70
2019-03-11T10:55:26.288Z,99078.59
2019-03-11T10:57:53.519Z,99086.16
2019-03-11T11:00:27.906Z,99085.59
2019-03-11T11:02:55.386Z,99085.87
2019-03-11T11:05:22.968Z,99084.09
2019-03-11T11:07:50.331Z,99092.17
2019-03-11T11:10:21.375Z,99096.17
2019-03-11T11:12:48.250Z,99090.20
2019-03-11T11:15:28.438Z,99104.56
2019-03-11T11:17:55.894Z,99112.42
2019-03-11T11:20:23.566Z,99110.23
2019-03-11T11:22:52.871Z,99109.95
2019-03-11T11:25:24.884Z,99115.09
2019-03-11T11:27:51.978Z,99119.92
2019-03-11T11:30:27.095Z,99134.23
2019-03-11T11:32:56.061Z,99145.36
2019-03-11T11:35:23.377Z,99153.42
2019-03-11T11:37:50.698Z,99168.50
2019-03-11T11:40:25.720Z,99164.11
2019-03-11T11:42:53.556Z,99166.91
2019-03-11T11:45:25.264Z,99159.22
2019-03-11T11:47:52.827Z,99151.66
2019-03-11T11:50:23.060Z,99150.59
2019-03-11T11:52:50.879Z,99148.52
2019-03-11T11:55:22.425Z,99156.13
2019-03-11T11:57:50.556Z,99144.83
2019-03-11T12:00:26.359Z,99141.43
2019-03-11T12:02:53.551Z,99154.00
2019-03-11T12:05:24.219Z,99154.33
2019-03-11T12:07:51.841Z,99176.92
2019-03-11T12:10:28.327Z,99169.01
2019-03-11T12:13:00.168Z,99174.48
2019-03-11T12:15:27.165Z,99168.02
2019-03-11T12:17:56.071Z,99168.52
2019-03-11T12:20:28.285Z,99171.56
2019-03-11T12:22:57.822Z,99164.55
2019-03-11T12:25:26.003Z,99155.70
2019-03-11T12:27:54.579Z,99189.66
2019-03-11T12:30:35.752Z,99185.63
2019-03-11T12:33:03.382Z,99188.83
2019-03-11T12:35:30.427Z,99190.38
2019-03-11T12:37:58.286Z,99183.28
2019-03-11T12:40:25.492Z,99176.71
2019-03-11T12:42:53.077Z,99174.59
2019-03-11T12:45:22.530Z,99181.10
2019-03-11T12:47:49.876Z,99175.84
2019-03-11T12:50:24.469Z,99173.13
2019-03-11T12:52:51.557Z,99169.48
2019-03-11T12:55:21.278Z,99173.38
2019-03-11T12:57:48.253Z,99167.70
2019-03-11T13:00:20.896Z,99177.13
2019-03-11T13:02:48.436Z,99164.52
2019-03-11T13:05:16.482Z,99192.31
2019-03-11T13:07:43.859Z,99199.27
2019-03-11T13:10:24.548Z,99198.56
2019-03-11T13:12:51.745Z,99195.21
2019-03-11T13:15:19.435Z,99180.98
2019-03-11T13:17:46.936Z,99192.89
2019-03-11T13:20:33.060Z,99190.86
2019-03-11T13:22:59.945Z,99193.77
2019-03-11T13:25:29.750Z,99196.97
2019-03-11T13:27:59.156Z,99198.89
2019-03-11T13:30:28.570Z,99198.88
2019-03-11T13:32:56.036Z,99213.18
2019-03-11T13:35:24.612Z,99210.28
2019-03-11T13:37:52.440Z,99216.61
2019-03-11T13:40:21.355Z,99215.52
2019-03-11T13:42:48.380Z,99224.64
2019-03-11T13:45:17.163Z,99228.68
2019-03-11T13:47:44.463Z,99220.25
2019-03-11T13:50:17.284Z,99211.98
2019-03-11T13:52:44.653Z,99222.06
2019-03-11T13:55:14.919Z,99222.48
2019-03-11T13:57:41.833Z,99216.16
2019-03-11T14:00:15.435Z,99212.33
2019-03-11T14:02:42.298Z,99219.02
2019-03-11T14:05:11.839Z,99208.10
2019-03-11T14:07:38.777Z,99224.31
2019-03-11T14:10:11.480Z,99229.45
2019-03-11T14:12:38.553Z,99228.97
2019-03-11T14:15:17.978Z,99235.23
2019-03-11T14:17:45.189Z,99227.42
2019-03-11T14:20:13.599Z,99240.61
2019-03-11T14:22:43.283Z,99255.66
2019-03-11T14:25:15.394Z,99276.94
2019-03-11T14:27:43.651Z,99269.92
2019-03-11T14:30:18.272Z,99268.13
2019-03-11T14:32:45.560Z,99265.16
2019-03-11T14:35:12.881Z,99272.52
2019-03-11T14:37:40.158Z,99279.83
2019-03-11T14:40:11.133Z,99267.79
2019-03-11T14:42:38.248Z,99280.59
2019-03-11T14:45:16.446Z,99288.73
2019-03-11T14:47:43.788Z,99282.23
2019-03-11T14:50:13.220Z,99285.23
2019-03-11T14:52:40.055Z,99286.04
2019-03-11T14:55:10.455Z,99295.23
2019-03-11T14:57:37.585Z,99295.50
2019-03-11T15:00:21.791Z,99296.58
2019-03-11T15:02:49.106Z,99293.63
2019-03-11T15:05:19.013Z,99283.61
2019-03-11T15:07:46.289Z,99282.79
2019-03-11T15:10:19.270Z,99264.69
2019-03-11T15:12:48.729Z,99261.44
2019-03-11T15:15:24.243Z,99258.73
2019-03-11T15:17:54.009Z,99258.20
2019-03-11T15:20:21.347Z,99260.61
2019-03-11T15:22:48.412Z,99267.39
2019-03-11T15:25:16.668Z,99278.73
2019-03-11T15:27:44.218Z,99281.42
2019-03-11T15:30:15.590Z,99285.50
2019-03-11T15:32:42.747Z,99295.76
2019-03-11T15:35:11.091Z,99320.37
2019-03-11T15:37:40.078Z,99322.53
2019-03-11T15:40:16.493Z,99334.11
2019-03-11T15:42:46.857Z,99341.39
2019-03-11T15:45:15.532Z,99304.61
2019-03-11T15:47:43.162Z,99289.44
2019-03-11T15:50:29.051Z,99292.66
2019-03-11T15:52:55.971Z,99288.34
2019-03-11T15:55:24.345Z,99286.68
2019-03-11T15:57:51.477Z,99280.73
2019-03-11T16:00:21.637Z,99283.44
2019-03-11T16:02:49.139Z,99291.28
2019-03-11T16:05:18.919Z,99294.03
2019-03-11T16:07:46.388Z,99285.16
2019-03-11T16:10:17.190Z,99294.08
2019-03-11T16:12:44.395Z,99305.44
2019-03-11T16:15:13.212Z,99314.89
2019-03-11T16:17:40.627Z,99320.28
2019-03-11T16:20:20.186Z,99304.34
2019-03-11T16:22:47.435Z,99314.58
2019-03-11T16:25:14.994Z,99321.27
2019-03-11T16:27:41.741Z,99317.19
2019-03-11T16:30:20.181Z,99329.87
2019-03-11T16:32:58.409Z,99331.98
2019-03-11T16:35:16.135Z,99329.03
2019-03-11T16:37:43.241Z,99333.39
2019-03-11T16:40:12.118Z,99331.25
2019-03-11T16:42:39.782Z,99320.44
2019-03-11T16:45:10.147Z,99322.84
2019-03-11T16:47:37.330Z,99329.56
2019-03-11T16:50:28.805Z,99336.03
2019-03-11T16:52:55.736Z,99346.59
2019-03-11T16:55:25.225Z,99349.55
2019-03-11T16:57:54.031Z,99349.27
2019-03-11T17:00:23.532Z,99347.38
2019-03-11T17:02:50.551Z,99358.19
2019-03-11T17:05:18.105Z,99356.30
2019-03-11T17:07:45.323Z,99364.36
2019-03-11T17:10:15.796Z,99364.66
2019-03-11T17:12:42.930Z,99374.35
2019-03-11T17:15:10.903Z,99374.57
2019-03-11T17:17:37.708Z,99372.40
2019-03-11T17:20:12.800Z,99373.47
2019-03-11T17:22:40.061Z,99380.41
2019-03-11T17:25:10.917Z,99383.92
2019-03-11T17:27:38.345Z,99396.37
2019-03-11T17:30:20.700Z,99398.27
2019-03-11T17:32:48.998Z,99403.42
2019-03-11T17:35:16.391Z,99410.68
2019-03-11T17:37:44.422Z,99425.20
2019-03-11T17:40:19.648Z,99422.23
2019-03-11T17:42:49.775Z,99425.75
2019-03-11T17:45:16.817Z,99423.55
2019-03-11T17:47:43.869Z,99431.39
2019-03-11T17:50:20.126Z,99429.77
2019-03-11T17:52:47.734Z,99429.18
2019-03-11T17:55:16.362Z,99448.05
2019-03-11T17:57:44.191Z,99432.43
2019-03-11T18:00:30.761Z,99448.89
2019-03-11T18:02:58.019Z,99447.78
2019-03-11T18:05:25.155Z,99456.66
2019-03-11T18:07:52.247Z,99459.91
2019-03-11T18:10:19.313Z,99459.87
2019-03-11T18:12:47.464Z,99450.20
2019-03-11T18:15:18.118Z,99452.37
2019-03-11T18:17:45.528Z,99456.10
2019-03-11T18:20:17.533Z,99459.08
2019-03-11T18:22:44.677Z,99470.70
2019-03-11T18:25:15.253Z,99464.52
2019-03-11T18:27:42.298Z,99487.91
2019-03-11T18:30:17.384Z,99481.68
2019-03-11T18:32:44.554Z,99480.88
2019-03-11T18:35:12.218Z,99485.72
2019-03-11T18:37:39.292Z,99487.34
2019-03-11T18:40:13.557Z,99494.03
2019-03-11T18:42:40.645Z,99496.78
2019-03-11T18:45:10.569Z,99503.84
2019-03-11T18:47:37.461Z,99502.58
2019-03-11T18:50:16.503Z,99519.55
2019-03-11T18:52:43.868Z,99518.44
2019-03-11T18:55:11.043Z,99511.98
2019-03-11T18:57:38.001Z,99512.73
2019-03-11T19:00:20.543Z,99519.51
2019-03-11T19:02:48.053Z,99513.79
2019-03-11T19:05:22.760Z,99519.19
2019-03-11T19:07:49.834Z,99523.45
2019-03-11T19:10:17.172Z,99527.28
2019-03-11T19:12:44.635Z,99525.14
2019-03-11T19:15:18.018Z,99523.51
2019-03-11T19:17:45.089Z,99522.44
2019-03-11T19:20:24.344Z,99521.89
2019-03-11T19:22:52.171Z,99527.56
2019-03-11T19:25:19.842Z,99532.11
2019-03-11T19:27:47.067Z,99524.81
2019-03-11T19:30:21.774Z,99534.48
2019-03-11T19:32:49.112Z,99543.08
2019-03-11T19:35:18.163Z,99538.28
2019-03-11T19:37:45.499Z,99550.34
2019-03-11T19:40:19.194Z,99542.25
2019-03-11T19:42:46.485Z,99545.69
2019-03-11T19:45:15.453Z,99541.91
2019-03-11T19:47:43.118Z,99544.06
2019-03-11T19:50:13.740Z,99555.56
2019-03-11T19:52:42.741Z,99554.40
2019-03-11T19:55:10.369Z,99546.88
2019-03-11T19:57:37.276Z,99561.36
2019-03-11T20:00:20.418Z,99578.30
2019-03-11T20:02:49.072Z,99578.88
2019-03-11T20:05:23.743Z,99588.36
2019-03-11T20:07:50.895Z,99588.02
2019-03-11T20:10:18.365Z,99598.52
2019-03-11T20:12:45.349Z,99600.99
2019-03-11T20:15:13.098Z,99587.80
2019-03-11T20:17:40.673Z,99602.39
2019-03-11T20:20:16.414Z,99591.22
2019-03-11T20:22:43.634Z,99608.50
2019-03-11T20:25:17.400Z,99590.20
2019-03-11T20:27:44.727Z,99609.28
2019-03-11T20:30:15.859Z,99597.55
2019-03-11T20:32:43.170Z,99603.48
2019-03-11T20:35:10.295Z,99615.34
2019-03-11T20:37:39.939Z,99636.39
2019-03-11T20:40:10.118Z,99608.67
2019-03-11T20:42:37.817Z,99619.72
2019-03-11T20:45:14.871Z,99639.09
2019-03-11T20:47:41.904Z,99627.19
2019-03-11T20:50:12.905Z,99624.49
2019-03-11T20:52:42.738Z,99632.08
2019-03-11T20:55:12.827Z,99627.97
2019-03-11T20:57:40.756Z,99632.63
2019-03-11T21:00:13.899Z,99632.08
2019-03-11T21:02:42.292Z,99627.31
2019-03-11T21:05:13.462Z,99641.91
2019-03-11T21:07:40.475Z,99640.57
2019-03-11T21:10:12.071Z,99641.20
2019-03-11T21:12:39.360Z,99646.35
2019-03-11T21:15:11.266Z,99658.63
2019-03-11T21:17:38.842Z,99648.02
2019-03-11T21:20:13.594Z,99642.40
2019-03-11T21:22:40.067Z,99654.47
2019-03-11T21:25:14.044Z,99655.61
2019-03-11T21:27:41.182Z,99647.50
2019-03-11T21:30:22.910Z,99652.11
2019-03-11T21:32:53.180Z,99658.06
2019-03-11T21:35:20.397Z,99663.19
2019-03-11T21:37:47.624Z,99670.42
2019-03-11T21:40:17.751Z,99667.21
2019-03-11T21:42:47.772Z,99664.17
2019-03-11T21:45:18.978Z,99667.38
2019-03-11T21:47:46.683Z,99667.03
2019-03-11T21:50:25.362Z,99664.55
2019-03-11T21:52:52.614Z,99672.89
2019-03-11T21:55:19.749Z,99677.22
2019-03-11T21:57:47.194Z,99679.45
2019-03-11T22:00:32.906Z,99681.19
2019-03-11T22:02:51.952Z,99680.38
2019-03-11T22:05:19.434Z,99677.33
2019-03-11T22:07:46.391Z,99693.61
2019-03-11T22:10:14.979Z,99679.87
2019-03-11T22:12:42.286Z,99684.99
2019-03-11T22:15:15.764Z,99682.79
2019-03-11T22:17:42.706Z,99681.78
2019-03-11T22:20:14.107Z,99686.89
2019-03-11T22:22:41.130Z,99686.23
2019-03-11T22:25:12.144Z,99688.56
2019-03-11T22:27:38.992Z,99691.28
2019-03-11T22:30:19.564Z,99690.78
2019-03-11T22:32:47.060Z,99694.05
2019-03-11T22:35:14.028Z,99693.82
2019-03-11T22:37:41.139Z,99691.13
2019-03-11T22:40:13.147Z,99689.64
2019-03-11T22:42:40.369Z,99695.52
2019-03-11T22:45:16.928Z,99704.02
2019-03-11T22:47:42.799Z,99699.70
2019-03-11T22:50:10.418Z,99705.77
2019-03-11T22:52:37.513Z,99710.89
2019-03-11T22:55:07.673Z,99711.95
2019-03-11T22:57:34.784Z,99704.16
2019-03-11T23:00:11.561Z,99712.41
2019-03-11T23:02:40.536Z,99719.43
2019-03-11T23:05:08.987Z,99720.58
2019-03-11T23:07:35.775Z,99719.37
2019-03-11T23:10:05.061Z,99720.02
2019-03-11T23:12:32.260Z,99723.06
2019-03-11T23:14:59.363Z,99718.25
2019-03-11T23:17:26.240Z,99719.94
2019-03-11T23:19:53.155Z,99731.68
2019-03-11T23:22:20.257Z,99731.08
2019-03-11T23:24:47.278Z,99732.94
2019-03-11T23:27:14.372Z,99736.83
2019-03-11T23:29:44.329Z,99730.68
2019-03-11T23:32:11.084Z,99744.91
2019-03-11T23:34:37.813Z,99734.64
2019-03-11T23:37:04.838Z,99742.84
2019-03-11T23:39:31.972Z,99731.09
2019-03-11T23:41:59.728Z,99738.42
2019-03-11T23:44:26.658Z,99737.14
2019-03-11T23:46:53.562Z,99740.89
2019-03-11T23:49:20.338Z,99740.69
2019-03-11T23:51:47.502Z,99742.55
2019-03-11T23:54:14.279Z,99754.85
2019-03-11T23:56:41.204Z,99756.87
2019-03-11T23:59:08.116Z,99758.64
